Terminal Aerodrome Forecast
Issued by NWS

Home | Current Version | Previous Version | Text Only | Print | Product List | Glossary On
Versions: 1 2 3 4 5 6 7 8 9 10 11 12 13 14 15 16 17
000
FTUS43 KDLH 131100
TAFHIB
TAF
KHIB 131132Z 1312/1412 31011KT 6SM BR OVC006
     FM131400 33012G17KT P6SM SCT005 OVC012
     FM131600 33014G21KT P6SM BKN013 OVC025
     FM131800 33015G23KT P6SM BKN020 OVC050
     FM132100 33016G24KT P6SM BKN040
     FM140300 33014KT P6SM SCT025 BKN100=

USA.gov is the U.S. government's official web portal to all federal, state and local government web resources and services.